Latest Weather Observations for Murrurundi Gap

IDN60801

Issued at 9:03 am EDT Friday 30 January 2015 (issued every 30 minutes, with the page automatically refreshed every 10 minutes)

About weather observations | Map of weather stations | Latest weather observations for NSW | Other Formats
Station Details ID: 061392 Name: MURRURUNDI GAP AWS Lat: -31.74 Lon: 150.79 Height: 729.4 m
Data from the previous 72 hours. | See also: Recent months for locations in New South Wales
Date/Time
EDT
Temp
°C
App
Temp
°C
Dew
Point
Rel
Hum
%
Delta-T
°C
Wind Press
QNH
hPa
Press
MSL
hPa
Rain
since 9 am
mm
Dir
 
Spd
km/h
Gust
km/h
Spd
kts
Gust
kts
30/08:30am 14.8 11.6 11.8 82 1.7 ESE 20 22 11 12 1011.9 1007.7 0.0
30/08:00am 12.5 9.1 10.4 87 1.1 SE 19 22 10 12 1011.7 1007.5 0.0
30/07:30am 11.7 8.2 10.3 91 0.7 SE 19 22 10 12 1011.5 1007.2 0.0
30/07:00am 10.9 7.2 10.3 96 0.3 SE 20 22 11 12 1011.1 1006.9 0.0
30/06:30am 9.7 5.8 9.4 98 0.2 SE 20 22 11 12 1010.9 1006.7 0.0
30/06:00am 9.6 5.7 9.3 98 0.2 ESE 20 20 11 11 1010.7 1006.5 0.0
30/05:30am 9.7 5.8 9.4 98 0.2 SE 20 22 11 12 1010.6 1006.4 0.0
30/05:00am 9.6 5.6 9.1 97 0.3 SE 20 22 11 12 1010.6 1006.4 0.0
30/04:30am 9.9 6.0 9.4 97 0.3 SE 20 22 11 12 1010.6 1006.4 0.0
30/04:00am 10.0 6.1 9.4 96 0.3 SE 20 22 11 12 1010.7 1006.5 0.0
30/03:30am 10.1 5.8 9.3 95 0.4 ESE 22 24 12 13 1011.1 1006.9 0.0
30/03:00am 10.5 6.6 9.4 93 0.6 SE 20 22 11 12 1011.2 1007.0 0.0
30/02:30am 11.0 7.1 9.4 90 0.8 SE 20 22 11 12 1011.5 1007.2 0.0
30/02:00am 11.3 7.5 9.2 87 1.1 SE 19 22 10 12 1011.7 1007.5 0.0
30/01:30am 12.5 8.2 9.3 81 1.7 S 22 30 12 16 1011.9 1007.7 0.0
30/01:00am 12.7 9.0 9.3 80 1.8 SE 19 24 10 13 1012.1 1007.9 0.0
30/12:30am 12.7 9.0 9.3 80 1.8 SE 19 20 10 11 1012.2 1008.0 0.0
30/12:00am 13.4 10.1 9.5 77 2.1 SE 17 19 9 10 1012.5 1008.3 0.0
 
Date/Time
EDT
Temp
°C
App
Temp
°C
Dew
Point
Rel
Hum
%
Delta-T
°C
Wind Press
QNH
hPa
Press
MSL
hPa
Rain
since 9 am
mm
Dir
 
Spd
km/h
Gust
km/h
Spd
kts
Gust
kts
29/11:30pm 13.3 10.0 9.5 78 2.0 ESE 17 17 9 9 1012.6 1008.4 0.0
29/11:00pm 13.8 10.8 9.3 74 2.4 SE 15 20 8 11 1012.7 1008.5 0.0
29/10:30pm 15.1 11.3 9.2 68 3.1 SE 19 20 10 11 1012.7 1008.5 0.0
29/10:00pm 15.3 11.5 9.7 69 3.0 SE 20 24 11 13 1012.7 1008.5 0.0
29/09:30pm 15.9 12.3 9.8 67 3.3 SSE 19 22 10 12 1012.6 1008.4 0.0
29/09:00pm 15.2 12.8 10.2 72 2.7 ESE 13 15 7 8 1012.4 1008.2 0.0
29/08:30pm 16.0 13.5 9.7 66 3.4 SE 13 15 7 8 1012.1 1007.9 0.0
29/08:00pm 17.1 13.7 9.3 60 4.2 S 17 19 9 10 1012.0 1007.8 0.0
29/07:30pm 17.8 14.7 8.9 56 4.8 SE 15 17 8 9 1011.8 1007.6 0.0
29/07:00pm 19.0 16.4 9.2 53 5.3 SSE 13 19 7 10 1011.6 1007.3 0.0
29/06:30pm 20.7 16.8 7.0 41 7.2 SW 17 28 9 15 1011.2 1007.0 0.0
29/06:00pm 21.2 19.7 9.1 46 6.7 W 7 13 4 7 1011.2 1007.0 0.0
29/05:30pm 19.2 16.4 8.5 50 5.8 SE 13 19 7 10 1011.5 1007.2 0.0
29/05:00pm 20.3 18.4 8.9 48 6.2 E 9 15 5 8 1011.5 1007.2 0.0
29/04:30pm 20.0 17.0 9.3 50 5.9 SE 15 22 8 12 1011.8 1007.6 0.0
29/04:00pm 19.8 16.8 7.9 46 6.4 S 13 20 7 11 1011.9 1007.7 0.0
29/03:30pm 19.6 15.7 8.6 49 6.0 SSW 19 32 10 17 1012.1 1007.9 0.0
29/03:00pm 18.8 15.4 7.6 48 5.9 SSE 15 22 8 12 1012.4 1008.2 0.0
29/02:30pm 19.5 16.0 8.8 50 5.8 SSE 17 32 9 17 1012.6 1008.4 0.0
29/02:00pm 18.7 14.3 8.9 53 5.3 SE 22 33 12 18 1012.7 1008.5 0.0
29/01:30pm 20.2 15.8 10.3 53 5.5 SSE 24 32 13 17 1013.2 1009.0 0.0
29/01:00pm 18.1 14.1 9.2 56 4.8 SE 20 30 11 16 1013.4 1009.2 0.0
29/12:30pm 19.0 16.9 11.1 60 4.5 E 13 20 7 11 1013.7 1009.5 0.0
29/12:00pm 17.9 15.4 11.2 65 3.8 ESE 15 26 8 14 1013.9 1009.7 0.0
29/11:30am 17.8 14.7 11.6 67 3.5 SE 19 33 10 18 1013.9 1009.7 0.0
29/11:00am 16.3 12.1 11.0 71 2.9 SE 24 35 13 19 1014.0 1009.8 0.0
29/10:30am 15.8 10.0 10.8 72 2.8 ESE 32 39 17 21 1013.9 1009.7 0.0
29/10:01am 14.9 9.0 10.5 75 2.4 SE 32 39 17 21 1013.9 1009.7 0.0
29/10:00am 14.6 8.6 10.0 74 2.5 SE 32 39 17 21 1013.9 1009.7 0.0
29/09:31am 14.8 8.4 10.8 77 2.2 SSE 35 41 19 22 1013.8 1009.6 0.0
29/09:30am 14.7 8.4 10.9 78 2.1 SSE 35 46 19 25 1013.8 1009.6 0.0
29/09:00am 14.0 7.5 10.4 79 2.0 SSE 35 43 19 23 1013.8 1009.6 1.2
29/08:53am 14.1 7.8 11.1 82 1.7 SSE 35 41 19 22 1013.8 1009.6 1.2
29/08:30am 12.4 6.8 10.3 87 1.1 SSE 30 35 16 19 1014.1 1010.0 1.2
29/08:00am 12.0 6.5 10.4 90 0.9 SSE 30 35 16 19 1014.0 1009.8 1.2
29/07:30am 11.8 6.7 10.5 92 0.7 SE 28 37 15 20 1013.9 1009.7 1.2
29/07:00am 11.7 7.3 10.4 92 0.7 SE 24 30 13 16 1013.5 1009.3 1.2
29/06:30am 11.8 5.8 10.2 90 0.9 SE 32 43 17 23 1012.7 1008.5 1.2
29/06:00am 11.9 6.8 10.5 91 0.8 SE 28 33 15 18 1012.7 1008.5 1.2
29/05:30am 12.0 6.1 10.6 91 0.8 SSE 32 41 17 22 1012.5 1008.3 1.2
29/05:00am 12.2 6.7 10.6 90 0.9 SE 30 37 16 20 1012.4 1008.2 1.2
29/04:30am 12.2 6.4 10.9 92 0.7 SE 32 43 17 23 1012.0 1007.8 1.2
29/04:00am 12.5 5.1 11.1 91 0.8 SSE 41 50 22 27 1011.8 1007.6 1.2
29/03:30am 12.9 5.9 11.3 90 0.9 SE 39 54 21 29 1011.8 1007.6 1.2
29/03:00am 12.4 4.7 11.6 95 0.4 SE 43 50 23 27 1011.7 1007.5 1.2
29/02:56am 12.3 5.0 11.7 96 0.3 SE 41 52 22 28 1011.6 1007.3 1.2
29/02:30am 12.5 4.9 11.7 95 0.4 SE 43 52 23 28 1011.9 1007.7 1.2
29/02:00am 13.0 5.1 11.4 90 0.9 SE 44 56 24 30 1012.3 1008.1 1.2
29/01:30am 13.1 4.8 11.3 89 1.0 SE 46 59 25 32 1012.4 1008.2 1.2
29/01:00am 13.0 3.5 11.1 88 1.0 SE 52 65 28 35 1012.6 1008.4 1.2
29/12:30am 13.2 4.4 11.1 87 1.1 SE 48 65 26 35 1012.9 1008.6 1.2
29/12:28am 13.2 4.9 11.3 88 1.0 SE 46 65 25 35 1012.9 1008.6 1.2
29/12:02am 12.9 4.3 11.5 91 0.8 SE 48 57 26 31 1013.0 1008.8 1.2
29/12:00am 12.9 4.3 11.5 91 0.8 SE 48 57 26 31 1013.0 1008.8 1.2
 
Date/Time
EDT
Temp
°C
App
Temp
°C
Dew
Point
Rel
Hum
%
Delta-T
°C
Wind Press
QNH
hPa
Press
MSL
hPa
Rain
since 9 am
mm
Dir
 
Spd
km/h
Gust
km/h
Spd
kts
Gust
kts
28/11:30pm 12.8 4.7 12.2 96 0.3 SE 46 57 25 31 1013.1 1008.9 1.2
28/11:23pm 12.5 4.4 12.2 98 0.2 SE 46 56 25 30 1013.2 1009.0 1.2
28/11:00pm 13.6 4.6 11.5 87 1.2 SE 50 65 27 35 1013.1 1008.9 1.2
28/10:30pm 13.8 3.9 11.1 84 1.5 SSE 54 65 29 35 1013.1 1008.9 1.2
28/10:00pm 14.1 4.6 11.1 82 1.7 SSE 52 65 28 35 1013.0 1008.8 1.2
28/09:30pm 14.4 6.0 11.0 80 1.9 SE 46 57 25 31 1013.0 1008.8 1.2
28/09:00pm 14.5 6.0 10.5 77 2.2 SE 46 61 25 33 1012.9 1008.6 1.2
28/08:37pm 14.6 5.9 10.0 74 2.5 SE 46 65 25 35 1012.6 1008.4 1.2
28/08:30pm 14.7 5.3 10.1 74 2.5 SE 50 61 27 33 1012.6 1008.4 1.2
28/08:17pm 14.8 5.7 9.8 72 2.7 SE 48 67 26 36 1012.6 1008.4 1.2
28/08:00pm 14.8 5.6 9.6 71 2.8 SE 48 65 26 35 1012.6 1008.4 1.2
28/07:30pm 14.9 6.1 9.7 71 2.8 SE 46 61 25 33 1012.5 1008.3 1.2
28/07:00pm 15.2 5.2 9.3 68 3.2 SE 52 67 28 36 1012.2 1008.0 1.2
28/06:30pm 15.4 5.1 9.7 69 3.1 SE 54 72 29 39 1012.2 1008.0 1.2
28/06:00pm 15.7 7.5 10.5 71 2.9 SE 44 63 24 34 1012.1 1007.9 1.2
28/05:32pm 16.0 7.1 10.7 71 2.9 SE 48 67 26 36 1012.0 1007.8 1.2
28/05:30pm 16.1 7.0 11.1 72 2.8 SE 50 67 27 36 1012.1 1007.9 1.2
28/05:12pm 16.0 7.1 10.5 70 3.0 SE 48 67 26 36 1012.0 1007.8 1.2
28/05:00pm 16.3 5.8 10.4 68 3.2 SE 56 70 30 38 1011.9 1007.7 1.2
28/04:30pm 16.8 8.0 11.1 69 3.2 SSE 48 69 26 37 1012.1 1007.9 1.2
28/04:12pm 16.9 8.2 11.4 70 3.1 SE 48 67 26 36 1012.1 1007.9 1.2
28/04:00pm 16.3 6.3 10.6 69 3.1 SSE 54 67 29 36 1012.0 1007.8 1.2
28/03:30pm 16.1 6.5 10.8 71 2.9 SSE 52 70 28 38 1012.0 1007.8 1.2
28/03:04pm 16.1 7.9 12.8 81 1.9 SE 48 67 26 36 1012.1 1007.9 1.2
28/03:00pm 15.9 6.7 12.3 79 2.0 SE 52 67 28 36 1012.1 1007.9 1.2
28/02:34pm 15.3 6.4 11.9 80 1.9 SSE 50 70 27 38 1012.0 1007.8 1.2
28/02:30pm 15.6 7.5 13.1 85 1.4 SSE 48 61 26 33 1012.2 1008.0 1.2
28/02:23pm 14.8 6.9 12.8 88 1.1 SSE 46 61 25 33 1012.3 1008.1 1.2
28/02:00pm 13.9 6.7 13.0 94 0.5 SE 43 52 23 28 1012.6 1008.4 1.0
28/01:36pm 14.4 8.1 13.4 94 0.6 SSE 39 52 21 28 1012.5 1008.3 1.0
28/01:30pm 14.7 8.7 13.2 91 0.9 SSE 37 52 20 28 1012.4 1008.2 1.0
28/01:00pm 16.7 10.0 13.4 81 1.9 SSE 41 54 22 29 1012.1 1007.9 1.0
28/12:30pm 16.0 9.8 13.8 87 1.3 SE 39 50 21 27 1012.5 1008.3 1.0
28/12:20pm 15.8 10.6 14.5 92 0.8 SE 35 46 19 25 1012.6 1008.4 1.0
28/12:00pm 15.1 10.0 14.9 99 0.1 SSE 35 43 19 23 1012.9 1008.6 1.0
28/11:30am 14.8 10.2 14.6 99 0.1 SSE 32 43 17 23 1013.1 1008.9 0.6
28/11:00am 14.9 10.0 14.4 97 0.3 S 33 41 18 22 1013.0 1008.8 0.0
28/10:51am 15.1 11.5 14.1 94 0.6 S 26 39 14 21 1012.9 1008.6 0.0
28/10:45am 15.7 11.9 14.6 93 0.7 SSE 28 39 15 21 1013.0 1008.8 0.0
28/10:30am 16.3 10.9 13.8 85 1.5 SE 35 46 19 25 1012.6 1008.4 0.0
28/10:00am 16.0 11.1 14.2 89 1.1 SE 33 43 18 23 1012.4 1008.2 0.0
28/09:30am 15.5 10.1 13.9 90 0.9 SE 35 44 19 24 1012.4 1008.2 0.0
28/09:00am 15.2 9.4 13.9 92 0.8 SE 37 48 20 26 1012.1 1007.9 5.8
28/08:30am 14.8 8.7 14.2 96 0.4 SE 39 48 21 26 1011.7 1007.5 5.8
28/08:29am 14.8 8.7 14.2 96 0.4 SE 39 48 21 26 1011.7 1007.5 5.8
28/08:14am 14.6 8.9 14.1 97 0.3 SE 37 44 20 24 1011.6 1007.3 5.8
28/08:00am 14.3 8.2 14.0 98 0.2 SE 39 46 21 25 1011.4 1007.1 5.8
28/07:56am 14.3 8.5 13.8 97 0.3 SE 37 46 20 25 1011.4 1007.1 5.8
28/07:37am 14.2 8.4 13.9 98 0.2 SE 37 44 20 24 1011.1 1006.9 5.8
28/07:30am 14.1 8.3 13.8 98 0.2 SSE 37 44 20 24 1011.0 1006.8 5.8
28/07:00am 13.9 8.4 13.6 98 0.2 SSE 35 41 19 22 1010.7 1006.5 5.8
28/06:35am 13.8 8.2 13.3 97 0.3 SE 35 44 19 24 1010.5 1006.3 5.8
28/06:30am 13.8 8.2 13.3 97 0.3 SE 35 44 19 24 1010.5 1006.3 5.8
28/06:00am 14.0 8.3 13.1 94 0.5 SE 35 44 19 24 1010.1 1005.8 5.8
28/05:30am 14.0 7.5 12.9 93 0.6 SE 39 48 21 26 1009.7 1005.5 5.8
28/05:00am 14.0 8.3 12.9 93 0.6 SE 35 43 19 23 1009.4 1005.2 5.8
28/04:30am 14.2 8.0 12.8 91 0.8 SE 37 46 20 25 1009.5 1005.3 5.8
28/04:00am 14.1 7.5 12.5 90 0.9 SE 39 48 21 26 1009.3 1005.1 5.8
28/03:30am 14.2 7.5 12.4 89 1.0 SE 39 50 21 27 1009.4 1005.2 5.8
28/03:00am 14.4 7.0 12.3 87 1.2 SE 43 56 23 30 1009.5 1005.3 5.8
28/02:30am 14.1 6.9 13.1 94 0.6 SE 43 57 23 31 1009.7 1005.5 5.8
28/02:00am 14.3 7.6 13.5 95 0.5 SE 41 50 22 27 1009.9 1005.6 5.8
28/01:30am 14.4 7.8 13.8 96 0.3 SE 41 50 22 27 1010.1 1005.8 5.8
28/01:00am 14.2 7.7 14.0 99 0.1 SE 41 46 22 25 1010.3 1006.0 5.8
28/12:30am 14.2 8.3 13.7 97 0.3 SE 37 46 20 25 1010.4 1006.1 5.8
28/12:00am 14.7 7.8 13.9 95 0.5 SSE 43 52 23 28 1010.7 1006.5 5.8
 
Date/Time
EDT
Temp
°C
App
Temp
°C
Dew
Point
Rel
Hum
%
Delta-T
°C
Wind Press
QNH
hPa
Press
MSL
hPa
Rain
since 9 am
mm
Dir
 
Spd
km/h
Gust
km/h
Spd
kts
Gust
kts
27/11:33pm 14.9 9.6 14.1 95 0.5 SE 35 43 19 23 1011.2 1007.0 5.8
27/11:30pm 15.0 9.6 14.0 94 0.6 SE 35 43 19 23 1011.4 1007.1 5.8
27/11:00pm 15.0 9.6 14.0 94 0.6 SE 35 43 19 23 1011.4 1007.1 5.8
27/10:50pm 14.9 9.2 14.1 95 0.5 SSE 37 44 20 24 1011.5 1007.2 5.8
27/10:30pm 14.8 9.4 14.0 95 0.5 SSE 35 43 19 23 1011.4 1007.1 5.8
27/10:00pm 14.9 9.9 13.9 94 0.6 SSE 33 43 18 23 1011.0 1006.8 5.8
27/09:30pm 15.2 9.9 14.1 93 0.6 SE 35 46 19 25 1010.0 1005.7 5.8
27/09:00pm 14.7 11.1 14.2 97 0.3 ESE 26 32 14 17 1010.2 1005.9 5.8
27/08:30pm 15.4 12.1 13.9 91 0.9 S 24 35 13 19 1010.7 1006.5 5.8
27/08:00pm 14.9 11.0 14.3 96 0.4 ESE 28 43 15 23 1010.4 1006.1 5.8
27/07:30pm 15.2 10.5 14.4 95 0.5 ESE 32 54 17 29 1010.8 1006.6 5.4
27/07:00pm 15.2 12.2 14.7 97 0.3 SE 24 30 13 16 1012.5 1008.3 3.6
27/06:30pm 14.9 11.5 14.7 99 0.1 SSE 26 30 14 16 1012.2 1008.0 2.4
27/06:00pm 14.8 10.0 14.6 99 0.1 SSE 33 39 18 21 1011.7 1007.5 2.0
27/05:54pm 14.8 9.6 14.6 99 0.1 SSE 35 41 19 22 1011.5 1007.2 1.8
27/05:30pm 15.0 9.1 14.8 99 0.1 SE 39 52 21 28 1011.1 1006.9 1.4
27/05:24pm 15.0 8.7 14.7 98 0.2 SE 41 52 22 28 1010.9 1006.7 1.4
27/05:00pm 15.3 10.2 14.8 97 0.3 SE 35 44 19 24 1011.0 1006.8 1.0
27/04:30pm 15.8 10.0 15.0 95 0.5 SE 39 50 21 27 1011.4 1007.1 0.4
27/04:00pm 16.4 11.5 15.4 94 0.6 SE 35 52 19 28 1011.1 1006.9 0.4
27/03:30pm 16.9 11.3 15.6 92 0.8 SE 39 46 21 25 1011.2 1007.0 0.4
27/03:00pm 16.3 10.2 15.3 94 0.6 SE 41 59 22 32 1011.6 1007.3 0.4
27/02:40pm 16.3 9.9 15.5 95 0.5 SE 43 65 23 35 1010.8 1006.6 0.4
27/02:30pm 16.8 12.7 16.0 95 0.5 SE 32 56 17 30 1010.8 1006.6 0.2
27/02:23pm 16.8 14.2 15.8 94 0.6 SE 24 44 13 24 1010.9 1006.7 0.2
27/02:00pm 17.7 14.8 16.2 91 0.9 SSE 26 39 14 21 1010.6 1006.4 0.0
27/01:30pm 17.2 13.4 16.6 96 0.4 S 32 43 17 23 1010.9 1006.7 0.0
27/01:08pm 18.1 14.3 16.8 92 0.8 S 32 43 17 23 1011.0 1006.8 0.0
27/01:00pm 18.9 15.6 16.9 88 1.2 S 30 39 16 21 1011.2 1007.0 0.0
27/12:30pm 20.4 18.4 17.4 83 1.9 SSE 24 32 13 17 1011.7 1007.5 0.0
27/12:00pm 20.3 18.6 17.3 83 1.9 SSE 22 28 12 15 1012.2 1008.0 0.0
27/11:40am 20.0 18.6 16.6 81 2.1 SE 19 24 10 13 1012.5 1008.3 0.0
27/11:30am 20.1 18.6 16.7 81 2.1 ESE 20 26 11 14 1012.3 1008.1 0.0
27/11:00am 20.2 18.5 17.2 83 1.9 SE 22 30 12 16 1012.2 1008.0 0.0
27/10:30am 19.8 17.2 16.8 83 1.9 SE 26 32 14 17 1012.4 1008.2 0.0
27/10:00am 19.0 17.1 16.8 87 1.4 SE 22 28 12 15 1012.7 1008.5 0.0
27/09:30am 18.3 16.8 16.8 91 0.9 SE 20 26 11 14 1012.9 1008.6 0.0

Other Formats:

Comma delimited format used in spreadsheet applications
http://www.bom.gov.au/fwo/IDN60801/IDN60801.95747.axf

JavaScript Object Notation format (JSON) in row-major order
http://www.bom.gov.au/fwo/IDN60801/IDN60801.95747.json